Time;durP1;ratioP1;P1;durP2;ratioP2;P2;SDS_P1;SDS_P2;PMS_P1;PMS_P2;Temp;Humidity;BMP_temperature;BMP_pressure;BME280_temperature;BME280_humidity;BME280_pressure;Samples;Min_cycle;Max_cycle;Signal;HPM_P1;HPM_P2
2023/12/13 00:00:39;;;;;;;5.95;4.60;;;;;;;7.57;100.00;99374.97;5066739;28;20406;-51
2023/12/13 00:03:09;;;;;;;7.35;5.03;;;;;;;7.55;100.00;99374.53;5067806;28;20048;-51
2023/12/13 00:05:37;;;;;;;6.85;4.78;;;;;;;7.55;100.00;99385.53;5070075;28;20064;-52
2023/12/13 00:08:04;;;;;;;8.43;4.43;;;;;;;7.53;100.00;99376.84;5061694;28;20414;-50
2023/12/13 00:10:31;;;;;;;6.32;5.03;;;;;;;7.53;100.00;99392.56;5025497;28;20048;-51
2023/12/13 00:12:59;;;;;;;5.13;4.10;;;;;;;7.53;100.00;99389.81;5049501;28;20037;-52
2023/12/13 00:15:26;;;;;;;6.75;4.53;;;;;;;7.51;100.00;99397.63;5066938;28;20044;-48
2023/12/13 00:17:54;;;;;;;10.23;4.45;;;;;;;7.51;100.00;99395.69;5054627;28;20056;-52
2023/12/13 00:20:21;;;;;;;8.00;5.70;;;;;;;7.52;100.00;99402.78;5066933;28;20437;-51
2023/12/13 00:22:48;;;;;;;5.68;4.50;;;;;;;7.50;100.00;99418.88;5066418;28;20052;-52
2023/12/13 00:25:16;;;;;;;6.65;4.70;;;;;;;7.50;100.00;99412.56;5067321;28;20402;-55
2023/12/13 00:27:43;;;;;;;6.07;4.47;;;;;;;7.50;100.00;99418.88;5067106;28;20143;-51
2023/12/13 00:30:11;;;;;;;6.57;4.70;;;;;;;7.49;100.00;99416.47;5066624;28;20489;-52
2023/12/13 00:32:38;;;;;;;6.03;5.05;;;;;;;7.46;100.00;99418.00;5065867;28;20045;-52
2023/12/13 00:35:06;;;;;;;6.68;4.78;;;;;;;7.44;100.00;99433.28;5063741;28;20506;-53
2023/12/13 00:37:33;;;;;;;4.85;4.22;;;;;;;7.42;100.00;99430.88;5067257;28;20056;-52
2023/12/13 00:40:01;;;;;;;7.35;5.07;;;;;;;7.41;100.00;99433.97;5067108;28;20055;-53
2023/12/13 00:42:28;;;;;;;8.00;4.20;;;;;;;7.39;100.00;99439.06;5067386;28;20060;-53
2023/12/13 00:44:56;;;;;;;7.30;4.20;;;;;;;7.35;100.00;99433.44;5066628;28;20059;-54
2023/12/13 00:47:23;;;;;;;5.90;4.55;;;;;;;7.35;100.00;99445.28;5067818;28;20395;-49
2023/12/13 00:49:50;;;;;;;4.32;3.50;;;;;;;7.35;100.00;99444.47;5067155;28;20044;-52
2023/12/13 00:52:18;;;;;;;5.00;4.25;;;;;;;7.33;100.00;99455.03;5066950;28;20044;-54
2023/12/13 00:54:46;;;;;;;6.78;4.15;;;;;;;7.32;100.00;99461.69;5066911;28;20044;-51
2023/12/13 00:57:13;;;;;;;4.13;3.72;;;;;;;7.30;100.00;99456.56;5049375;28;20052;-53
2023/12/13 00:59:41;;;;;;;5.45;4.10;;;;;;;7.27;100.00;99462.75;5067017;28;20045;-53
2023/12/13 01:02:08;;;;;;;6.57;4.30;;;;;;;7.28;100.00;99460.81;5066957;28;20075;-56
2023/12/13 01:04:38;;;;;;;7.00;4.72;;;;;;;7.27;100.00;99468.25;5066032;28;20044;-51
2023/12/13 01:07:05;;;;;;;5.15;4.28;;;;;;;7.27;100.00;99470.22;5060544;28;20051;-53
2023/12/13 01:09:33;;;;;;;7.97;4.45;;;;;;;7.26;100.00;99474.09;5064632;28;20049;-51
2023/12/13 01:12:00;;;;;;;4.32;3.80;;;;;;;7.25;100.00;99470.53;5066711;28;20042;-52
2023/12/13 01:14:28;;;;;;;5.13;3.80;;;;;;;7.24;100.00;99484.69;5066826;28;20406;-53
2023/12/13 01:16:55;;;;;;;4.60;3.70;;;;;;;7.23;100.00;99494.06;5066708;28;20057;-51
2023/12/13 01:19:24;;;;;;;20.25;6.00;;;;;;;7.21;100.00;99493.63;5066377;28;20044;-53
2023/12/13 01:21:52;;;;;;;5.78;4.03;;;;;;;7.21;100.00;99496.38;5066689;28;20048;-51
2023/12/13 01:24:19;;;;;;;4.78;3.42;;;;;;;7.19;100.00;99491.25;5053579;28;20040;-54
2023/12/13 01:26:46;;;;;;;5.63;3.35;;;;;;;7.19;100.00;99495.94;5067050;28;20056;-51
2023/12/13 01:29:14;;;;;;;5.85;3.22;;;;;;;7.20;100.00;99498.34;5066764;28;20044;-54
2023/12/13 01:31:41;;;;;;;5.22;4.72;;;;;;;7.21;100.00;99510.16;5066914;28;20048;-53
2023/12/13 01:34:09;;;;;;;6.18;3.80;;;;;;;7.20;100.00;99500.31;5053381;28;20124;-51
2023/12/13 01:36:42;;;;;;;3.72;3.17;;;;;;;7.20;100.00;99508.56;5048380;28;21054;-52
2023/12/13 01:39:17;;;;;;;4.57;3.63;;;;;;;7.19;100.00;99517.97;5066509;28;20033;-53
2023/12/13 01:41:44;;;;;;;4.40;3.55;;;;;;;7.19;100.00;99523.47;5055617;28;20553;-52
2023/12/13 01:44:12;;;;;;;3.40;3.10;;;;;;;7.18;100.00;99522.66;5064264;28;20036;-52
2023/12/13 01:46:40;;;;;;;3.60;3.30;;;;;;;7.20;100.00;99530.59;5068963;28;20111;-50
2023/12/13 01:49:11;;;;;;;3.60;2.85;;;;;;;7.20;100.00;99525.09;5070311;28;20442;-53
2023/12/13 01:51:40;;;;;;;7.25;3.50;;;;;;;7.20;100.00;99527.84;5070360;28;20055;-53
2023/12/13 01:54:13;;;;;;;5.45;3.45;;;;;;;7.18;100.00;99530.94;5070396;28;20052;-52
2023/12/13 01:56:43;;;;;;;3.97;3.45;;;;;;;7.19;100.00;99540.78;5069736;28;20072;-54
2023/12/13 01:59:12;;;;;;;4.90;3.17;;;;;;;7.18;100.00;99554.88;5069705;28;20049;-52
2023/12/13 02:01:40;;;;;;;3.40;3.10;;;;;;;7.18;100.00;99549.38;5063798;28;20084;-53
2023/12/13 02:04:09;;;;;;;4.28;2.97;;;;;;;7.19;100.00;99562.00;5069758;28;20135;-51
2023/12/13 02:06:37;;;;;;;4.50;3.58;;;;;;;7.17;100.00;99558.81;5052300;28;20047;-53
2023/12/13 02:09:04;;;;;;;5.97;2.95;;;;;;;7.17;100.00;99569.81;5064382;28;20499;-53
2023/12/13 02:11:31;;;;;;;4.32;3.22;;;;;;;7.16;100.00;99573.72;5069709;28;20047;-54
2023/12/13 02:13:59;;;;;;;4.45;3.55;;;;;;;7.17;100.00;99570.63;5046441;28;20049;-51
2023/12/13 02:16:26;;;;;;;3.40;3.10;;;;;;;7.19;100.00;99581.28;5068999;28;20064;-52
2023/12/13 02:18:54;;;;;;;6.22;3.65;;;;;;;7.18;100.00;99585.16;5068477;28;20272;-54
2023/12/13 02:21:24;;;;;;;4.85;3.38;;;;;;;7.18;100.00;99585.97;5057724;28;20052;-53
2023/12/13 02:23:58;;;;;;;4.43;2.88;;;;;;;7.18;100.00;99598.94;5060456;28;20060;-51
2023/12/13 02:26:25;;;;;;;6.45;3.10;;;;;;;7.19;100.00;99614.31;5069372;28;20052;-49
2023/12/13 02:28:54;;;;;;;4.82;2.60;;;;;;;7.19;100.00;99608.81;5068375;28;20406;-51
2023/12/13 02:31:24;;;;;;;3.53;2.67;;;;;;;7.19;100.00;99611.56;5067436;28;20040;-50
2023/12/13 02:33:51;;;;;;;4.82;3.25;;;;;;;7.18;100.00;99620.94;5061381;28;20407;-51
2023/12/13 02:36:19;;;;;;;5.35;2.55;;;;;;;7.18;100.00;99631.97;5057616;28;20045;-52
2023/12/13 02:38:46;;;;;;;2.40;2.20;;;;;;;7.18;100.00;99640.22;5067274;28;20499;-51
2023/12/13 02:41:13;;;;;;;4.15;2.83;;;;;;;7.18;100.00;99638.28;5069645;28;20430;-52
2023/12/13 02:43:41;;;;;;;2.83;2.63;;;;;;;7.17;100.00;99644.13;5064351;28;20045;-53
2023/12/13 02:46:08;;;;;;;3.78;2.53;;;;;;;7.18;100.00;99653.97;5056762;28;20051;-52
2023/12/13 02:48:35;;;;;;;4.50;3.15;;;;;;;7.19;100.00;99666.59;5066986;28;20055;-54
2023/12/13 02:51:03;;;;;;;9.68;3.20;;;;;;;7.19;100.00;99667.41;5050841;28;20541;-56
2023/12/13 02:53:30;;;;;;;4.00;3.00;;;;;;;7.21;100.00;99675.31;5059392;28;20129;-54
2023/12/13 02:55:58;;;;;;;5.03;3.15;;;;;;;7.20;100.00;99671.75;5064579;28;20048;-54
2023/12/13 02:58:25;;;;;;;5.57;4.03;;;;;;;7.21;100.00;99678.06;5031570;28;20041;-53
2023/12/13 03:00:52;;;;;;;4.63;3.42;;;;;;;7.20;100.00;99679.22;5137262;22;20035;-53
2023/12/13 03:03:20;;;;;;;4.30;2.53;;;;;;;7.19;100.00;99694.94;5022530;28;20045;-49
2023/12/13 03:05:47;;;;;;;3.10;2.63;;;;;;;7.21;100.00;99691.81;5030446;28;20048;-50
2023/12/13 03:08:16;;;;;;;4.55;2.78;;;;;;;7.19;100.00;99696.88;5028226;28;20053;-51
2023/12/13 03:10:44;;;;;;;12.80;2.80;;;;;;;7.18;100.00;99709.84;5028180;28;20061;-52
2023/12/13 03:13:12;;;;;;;4.28;2.90;;;;;;;7.20;100.00;99704.00;5029030;28;20042;-53
2023/12/13 03:15:41;;;;;;;3.28;2.55;;;;;;;7.21;100.00;99724.84;5023969;28;20562;-49
2023/12/13 03:18:08;;;;;;;5.45;2.53;;;;;;;7.18;100.00;99725.53;5010138;28;20037;-46
2023/12/13 03:20:35;;;;;;;7.72;2.67;;;;;;;7.18;100.00;99733.81;5027943;28;20114;-48
2023/12/13 03:23:07;;;;;;;3.75;2.75;;;;;;;7.18;100.00;99737.38;5011239;28;20049;-49
2023/12/13 03:25:34;;;;;;;3.60;2.42;;;;;;;7.18;100.00;99744.81;5028420;28;20053;-51
2023/12/13 03:28:02;;;;;;;3.60;2.80;;;;;;;7.16;100.00;99750.69;5028308;28;20045;-52
2023/12/13 03:30:29;;;;;;;6.38;2.35;;;;;;;7.16;100.00;99766.38;5028270;28;20042;-52
2023/12/13 03:32:57;;;;;;;4.35;2.78;;;;;;;7.16;100.00;99766.38;5028679;28;20380;-51
2023/12/13 03:35:24;;;;;;;2.13;1.92;;;;;;;7.15;100.00;99770.28;5009869;28;20061;-50
2023/12/13 03:37:53;;;;;;;4.72;2.55;;;;;;;7.13;100.00;99758.81;5028080;28;20045;-48
2023/12/13 03:40:20;;;;;;;4.40;2.70;;;;;;;7.11;100.00;99763.88;5010429;28;20052;-51
2023/12/13 03:42:47;;;;;;;5.80;2.60;;;;;;;7.11;100.00;99769.38;5028276;28;20049;-52
2023/12/13 03:45:15;;;;;;;6.05;2.60;;;;;;;7.09;100.00;99778.00;5027381;28;20053;-50
2023/12/13 03:47:43;;;;;;;3.42;2.25;;;;;;;7.09;100.00;99788.19;5027317;28;20053;-49
2023/12/13 03:50:11;;;;;;;3.38;2.50;;;;;;;7.06;100.00;99788.88;5010664;28;20041;-50
2023/12/13 03:52:38;;;;;;;5.32;1.95;;;;;;;7.05;100.00;99790.00;5028031;28;20060;-48
2023/12/13 03:55:06;;;;;;;5.05;1.98;;;;;;;7.06;100.00;99789.69;5027573;28;20045;-51
2023/12/13 03:57:33;;;;;;;6.25;2.50;;;;;;;7.06;100.00;99802.63;5027517;28;20041;-47
2023/12/13 04:00:01;;;;;;;5.28;2.15;;;;;;;7.05;100.00;99809.28;5026872;28;20049;-51
2023/12/13 04:02:29;;;;;;;4.20;2.10;;;;;;;7.04;100.00;99804.94;5026994;28;20060;-49
2023/12/13 04:04:56;;;;;;;3.72;1.40;;;;;;;7.04;100.00;99810.44;5027693;28;20053;-50
2023/12/13 04:07:24;;;;;;;2.97;1.45;;;;;;;7.03;100.00;99808.81;5027760;28;20064;-53
2023/12/13 04:09:51;;;;;;;3.70;2.20;;;;;;;7.02;100.00;99813.53;5027404;28;20053;-51
2023/12/13 04:12:18;;;;;;;5.05;1.33;;;;;;;7.04;100.00;99821.44;5027570;28;20514;-53
2023/12/13 04:14:46;;;;;;;2.85;2.55;;;;;;;7.05;100.00;99820.28;5027078;28;20045;-50
2023/12/13 04:17:13;;;;;;;3.25;1.27;;;;;;;7.03;100.00;99826.16;5027348;28;20450;-50
2023/12/13 04:19:40;;;;;;;6.05;2.33;;;;;;;7.02;100.00;99827.28;5027846;28;20045;-49
2023/12/13 04:22:08;;;;;;;5.60;1.10;;;;;;;7.02;100.00;99829.22;5026475;28;20045;-48
2023/12/13 04:24:35;;;;;;;0.90;0.80;;;;;;;7.02;100.00;99837.47;5026869;28;20049;-50
2023/12/13 04:27:03;;;;;;;4.55;1.40;;;;;;;6.98;100.00;99842.88;5028110;28;20063;-47
2023/12/13 04:29:31;;;;;;;3.53;1.05;;;;;;;6.94;100.00;99852.16;5027760;28;20053;-48
2023/12/13 04:31:58;;;;;;;3.20;1.40;;;;;;;6.86;100.00;99840.13;5027092;28;20063;-49
2023/12/13 04:34:25;;;;;;;1.02;0.82;;;;;;;6.81;100.00;99851.34;5026562;28;20048;-50
2023/12/13 04:36:53;;;;;;;0.73;0.70;;;;;;;6.74;100.00;99857.41;5026676;28;20518;-46
2023/12/13 04:39:20;;;;;;;3.17;0.90;;;;;;;6.68;100.00;99858.78;5027408;28;20410;-47
2023/12/13 04:41:48;;;;;;;2.20;1.13;;;;;;;6.65;100.00;99861.41;5027191;28;20056;-47
2023/12/13 04:44:16;;;;;;;1.60;0.80;;;;;;;6.60;100.00;99867.94;5027423;28;20064;-51
2023/12/13 04:46:43;;;;;;;0.82;0.68;;;;;;;6.57;100.00;99865.84;5027354;28;20053;-49
2023/12/13 04:49:11;;;;;;;0.68;0.50;;;;;;;6.53;100.00;99873.19;5027501;28;20056;-47
2023/12/13 04:51:38;;;;;;;3.35;2.40;;;;;;;6.51;100.00;99877.41;5026893;28;20057;-48
2023/12/13 04:54:05;;;;;;;1.17;1.08;;;;;;;6.49;100.00;99885.19;5026901;28;20052;-50
2023/12/13 04:56:33;;;;;;;0.75;0.60;;;;;;;6.46;100.00;99888.63;5027158;28;20053;-50
2023/12/13 04:59:00;;;;;;;1.10;0.70;;;;;;;6.44;100.00;99899.13;5027513;28;20057;-49
2023/12/13 05:01:27;;;;;;;0.70;0.47;;;;;;;6.41;100.00;99906.13;5026223;28;20049;-51
2023/12/13 05:03:55;;;;;;;3.55;0.75;;;;;;;6.37;100.00;99896.97;5026528;28;20503;-46
2023/12/13 05:06:22;;;;;;;1.08;0.63;;;;;;;6.34;100.00;99908.63;5026950;28;20660;-46
2023/12/13 05:08:49;;;;;;;0.50;0.40;;;;;;;6.31;100.00;99923.03;5027080;28;20048;-48
2023/12/13 05:11:17;;;;;;;2.28;0.57;;;;;;;6.30;100.00;99921.41;5026359;28;20077;-52
2023/12/13 05:13:44;;;;;;;0.70;0.40;;;;;;;6.32;100.00;99932.91;5027246;28;20064;-47
2023/12/13 05:16:11;;;;;;;0.52;0.30;;;;;;;6.35;100.00;99940.47;5025995;28;20052;-49
2023/12/13 05:18:39;;;;;;;2.47;0.40;;;;;;;6.40;100.00;99942.22;5027331;28;20418;-51
2023/12/13 05:21:06;;;;;;;1.50;0.93;;;;;;;6.42;100.00;99962.72;5028530;28;20041;-47
2023/12/13 05:23:34;;;;;;;2.67;0.80;;;;;;;6.43;100.00;99956.09;5029791;28;20045;-49
2023/12/13 05:26:01;;;;;;;3.05;0.82;;;;;;;6.44;100.00;99957.69;5027210;28;20053;-46
2023/12/13 05:28:28;;;;;;;1.60;0.85;;;;;;;6.46;100.00;99960.91;5030816;28;20048;-48
2023/12/13 05:30:56;;;;;;;1.17;0.55;;;;;;;6.48;100.00;99955.88;5029976;28;20045;-48
2023/12/13 05:33:24;;;;;;;0.73;0.35;;;;;;;6.46;100.00;99966.41;5030495;28;20050;-48
2023/12/13 05:35:52;;;;;;;3.53;0.70;;;;;;;6.45;100.00;99964.81;5029822;28;20068;-46
2023/12/13 05:38:19;;;;;;;1.52;0.40;;;;;;;6.45;100.00;99966.75;5029387;28;20045;-48
2023/12/13 05:40:46;;;;;;;2.20;0.43;;;;;;;6.44;100.00;99973.38;5030525;28;20049;-46
2023/12/13 05:43:14;;;;;;;0.75;0.45;;;;;;;6.39;100.00;99970.84;5028593;28;20052;-47
2023/12/13 05:45:41;;;;;;;0.90;0.47;;;;;;;6.36;100.00;99977.81;5029769;28;20064;-47
2023/12/13 05:48:09;;;;;;;2.13;0.60;;;;;;;6.31;100.00;99986.25;5030338;28;20049;-49
2023/12/13 05:50:36;;;;;;;3.05;0.60;;;;;;;6.26;100.00;99985.66;5029476;28;20060;-47
2023/12/13 05:53:04;;;;;;;0.98;0.60;;;;;;;6.22;100.00;99982.78;5029691;28;20046;-46
2023/12/13 05:55:31;;;;;;;2.20;0.68;;;;;;;6.19;100.00;99997.19;5029925;28;20044;-51
2023/12/13 05:57:59;;;;;;;2.08;0.40;;;;;;;6.17;100.00;100002.19;5029769;28;20403;-49
2023/12/13 06:00:26;;;;;;;3.72;0.43;;;;;;;6.14;100.00;100002.91;5029886;28;20053;-46
2023/12/13 06:02:54;;;;;;;0.93;0.40;;;;;;;6.10;100.00;99999.19;5029548;28;20518;-51
2023/12/13 06:05:24;;;;;;;2.72;0.32;;;;;;;6.06;100.00;100001.00;5028575;28;20120;-50
2023/12/13 06:07:52;;;;;;;4.18;0.63;;;;;;;6.03;100.00;100004.41;5030823;28;20042;-49
2023/12/13 06:10:19;;;;;;;0.20;0.20;;;;;;;6.01;100.00;100009.44;5030095;28;20045;-47
2023/12/13 06:12:50;;;;;;;2.03;0.50;;;;;;;5.97;100.00;100020.28;5029482;28;20594;-47
2023/12/13 06:15:23;;;;;;;3.60;0.50;;;;;;;5.96;100.00;100023.34;5028881;28;20061;-48
2023/12/13 06:17:51;;;;;;;0.57;0.40;;;;;;;5.96;100.00;100039.84;5029379;28;20045;-48
2023/12/13 06:20:18;;;;;;;1.38;0.55;;;;;;;5.91;100.00;100032.59;5029663;28;20403;-49
2023/12/13 06:22:45;;;;;;;1.38;0.40;;;;;;;5.88;100.00;100035.19;5016300;28;20052;-49
2023/12/13 06:25:13;;;;;;;5.45;0.85;;;;;;;5.85;100.00;100041.38;5029207;28;20056;-49
2023/12/13 06:27:41;;;;;;;0.77;0.40;;;;;;;5.82;100.00;100037.31;5027091;28;20049;-51
2023/12/13 06:30:10;;;;;;;1.63;0.60;;;;;;;5.80;100.00;100050.53;5029271;28;20054;-49
2023/12/13 06:32:38;;;;;;;2.55;0.60;;;;;;;5.77;100.00;100053.16;5029482;28;20053;-46
2023/12/13 06:35:06;;;;;;;1.15;0.45;;;;;;;5.75;100.00;100058.16;5029993;28;20049;-49
2023/12/13 06:37:33;;;;;;;1.98;0.55;;;;;;;5.72;100.00;100065.13;5022062;28;20058;-46
2023/12/13 06:40:01;;;;;;;1.90;0.80;;;;;;;5.70;100.00;100070.16;5024355;28;20583;-49
2023/12/13 06:42:28;;;;;;;2.88;0.70;;;;;;;5.68;100.00;100079.84;5029398;28;20051;-50
2023/12/13 06:44:56;;;;;;;0.70;0.50;;;;;;;5.65;100.00;100086.00;5029993;28;20049;-47
2023/12/13 06:47:25;;;;;;;1.98;0.80;;;;;;;5.65;100.00;100091.47;5020191;28;20049;-47
2023/12/13 06:49:56;;;;;;;1.10;0.82;;;;;;;5.62;100.00;100092.13;5026636;28;20057;-46
2023/12/13 06:52:24;;;;;;;1.45;0.57;;;;;;;5.59;100.00;100101.06;5029653;28;20049;-48
2023/12/13 06:54:51;;;;;;;2.00;0.77;;;;;;;5.57;100.00;100100.56;5029013;28;20104;-46
2023/12/13 06:57:19;;;;;;;2.08;1.77;;;;;;;5.54;100.00;100113.81;5029322;28;20064;-45
2023/12/13 06:59:46;;;;;;;2.63;0.43;;;;;;;5.53;100.00;100114.16;5028850;28;20398;-46
2023/12/13 07:02:15;;;;;;;1.15;0.82;;;;;;;5.50;100.00;100115.63;5025293;28;20052;-46
2023/12/13 07:04:43;;;;;;;2.95;0.63;;;;;;;5.48;100.00;100125.31;5049331;28;20056;-47
2023/12/13 07:07:14;;;;;;;2.65;0.65;;;;;;;5.46;100.00;100128.34;5049984;28;20048;-50
2023/12/13 07:09:46;;;;;;;0.63;0.40;;;;;;;5.45;100.00;100124.00;5048786;28;20049;-47
2023/12/13 07:12:13;;;;;;;0.90;0.60;;;;;;;5.42;100.00;100127.41;5049852;28;20044;-49
2023/12/13 07:14:40;;;;;;;2.25;0.80;;;;;;;5.40;100.00;100143.38;5048680;28;20060;-47
2023/12/13 07:17:07;;;;;;;0.77;0.50;;;;;;;5.41;100.00;100134.03;5049192;28;20052;-48
2023/12/13 07:19:35;;;;;;;2.55;0.60;;;;;;;5.39;100.00;100149.22;5040693;28;20053;-48
2023/12/13 07:22:02;;;;;;;2.17;0.40;;;;;;;5.36;100.00;100161.66;5026862;28;20045;-50
2023/12/13 07:24:30;;;;;;;2.67;0.70;;;;;;;5.37;100.00;100162.47;5022441;28;20502;-49
2023/12/13 07:26:57;;;;;;;0.60;0.55;;;;;;;5.35;100.00;100156.47;5048391;28;20064;-48
2023/12/13 07:29:25;;;;;;;1.48;0.50;;;;;;;5.35;100.00;100159.22;5047959;28;20045;-48
2023/12/13 07:31:53;;;;;;;1.30;0.60;;;;;;;5.33;100.00;100167.78;5048871;28;20040;-48
2023/12/13 07:34:20;;;;;;;1.85;0.60;;;;;;;5.32;100.00;100174.38;5048632;28;20053;-47
2023/12/13 07:36:49;;;;;;;1.48;0.70;;;;;;;5.31;100.00;100174.72;5012509;28;20049;-46
2023/12/13 07:39:16;;;;;;;2.00;0.60;;;;;;;5.30;100.00;100189.56;5048656;28;20041;-52
2023/12/13 07:41:44;;;;;;;5.07;0.60;;;;;;;5.28;100.00;100178.13;5030813;28;20071;-49
2023/12/13 07:44:12;;;;;;;2.20;0.63;;;;;;;5.26;100.00;100178.44;5049091;28;20052;-46
2023/12/13 07:46:39;;;;;;;1.13;0.65;;;;;;;5.24;100.00;100188.91;5048443;28;20044;-47
2023/12/13 07:49:08;;;;;;;8.15;1.85;;;;;;;5.22;100.00;100193.94;5048283;28;20060;-46
2023/12/13 07:51:35;;;;;;;0.68;0.60;;;;;;;5.19;100.00;100191.03;5048468;28;20049;-48
2023/12/13 07:54:03;;;;;;;0.93;0.50;;;;;;;5.17;100.00;100196.84;5048377;28;20056;-46
2023/12/13 07:56:30;;;;;;;1.95;1.05;;;;;;;5.16;100.00;100195.25;5048424;28;20045;-47
2023/12/13 07:58:59;;;;;;;3.03;1.10;;;;;;;5.14;100.00;100197.47;5047487;28;20728;-46
2023/12/13 08:01:27;;;;;;;2.13;0.50;;;;;;;5.12;100.00;100204.41;5041210;28;20475;-50
2023/12/13 08:03:56;;;;;;;1.73;0.73;;;;;;;5.09;100.00;100207.81;5028637;28;20056;-45
2023/12/13 08:06:23;;;;;;;2.97;0.90;;;;;;;5.07;100.00;100212.81;5028426;28;20502;-49
2023/12/13 08:08:51;;;;;;;2.67;0.60;;;;;;;5.06;100.00;100222.97;5027263;28;20038;-46
2023/12/13 08:11:19;;;;;;;4.00;1.00;;;;;;;5.04;100.00;100214.25;5024167;28;20033;-50
2023/12/13 08:13:46;;;;;;;4.00;1.10;;;;;;;5.02;100.00;100222.00;5028984;28;20054;-52
2023/12/13 08:16:14;;;;;;;1.02;0.60;;;;;;;5.00;100.00;100231.69;5028373;28;20778;-46
2023/12/13 08:18:41;;;;;;;4.22;0.77;;;;;;;5.01;100.00;100233.28;5028346;28;20866;-47
2023/12/13 08:21:09;;;;;;;0.95;0.70;;;;;;;5.00;100.00;100238.00;5028233;28;20045;-45
2023/12/13 08:23:36;;;;;;;5.13;0.57;;;;;;;4.99;100.00;100239.09;5028418;28;20054;-50
2023/12/13 08:26:04;;;;;;;1.58;0.70;;;;;;;4.99;100.00;100244.59;5028530;28;20060;-46
2023/12/13 08:28:31;;;;;;;2.10;0.93;;;;;;;4.97;100.00;100254.28;5027963;28;20052;-47
2023/12/13 08:30:59;;;;;;;1.35;0.93;;;;;;;4.98;100.00;100259.44;5028196;28;20053;-46
2023/12/13 08:33:44;;;;;;;3.45;2.45;;;;;;;5.00;100.00;100261.88;5028080;28;20042;-47
2023/12/13 08:36:12;;;;;;;6.50;3.70;;;;;;;5.01;100.00;100269.75;5011073;28;20038;-47
2023/12/13 08:38:40;;;;;;;10.75;4.90;;;;;;;5.05;100.00;100276.25;4997261;28;20038;-50
2023/12/13 08:41:09;;;;;;;1.98;0.98;;;;;;;5.00;100.00;100268.16;5025346;28;20041;-54
2023/12/13 08:43:38;;;;;;;4.22;1.40;;;;;;;4.96;100.00;100278.16;5027531;28;20050;-49
2023/12/13 08:46:06;;;;;;;3.10;1.20;;;;;;;4.91;100.00;100286.53;5027076;28;20037;-46
2023/12/13 08:48:34;;;;;;;5.50;1.85;;;;;;;4.88;100.00;100289.91;5023997;28;20407;-51
2023/12/13 08:51:02;;;;;;;5.85;2.75;;;;;;;4.87;100.00;100296.53;5027708;28;20054;-49
2023/12/13 08:53:30;;;;;;;3.33;1.42;;;;;;;4.87;100.00;100300.06;5026359;28;20599;-48
2023/12/13 08:55:57;;;;;;;2.63;1.58;;;;;;;4.87;100.00;100299.28;5029268;28;20045;-49
2023/12/13 08:58:27;;;;;;;2.50;1.48;;;;;;;4.88;100.00;100301.69;5014624;28;20510;-47
2023/12/13 09:00:55;;;;;;;3.28;1.73;;;;;;;4.90;100.00;100313.16;5031620;28;20069;-49
2023/12/13 09:03:22;;;;;;;5.43;1.67;;;;;;;4.89;100.00;100310.72;5031443;28;20057;-47
2023/12/13 09:05:50;;;;;;;8.23;2.00;;;;;;;4.89;100.00;100310.72;5032425;28;20053;-46
2023/12/13 09:08:17;;;;;;;4.10;2.40;;;;;;;4.90;100.00;100304.91;5031413;28;20053;-49
2023/12/13 09:10:45;;;;;;;4.75;2.42;;;;;;;4.90;100.00;100313.16;5030921;28;20061;-46
2023/12/13 09:13:13;;;;;;;6.00;2.28;;;;;;;4.91;100.00;100323.00;5003372;28;20037;-46
2023/12/13 09:15:42;;;;;;;3.42;2.70;;;;;;;4.91;100.00;100331.22;5030221;28;20049;-49
2023/12/13 09:18:10;;;;;;;5.30;3.00;;;;;;;4.93;100.00;100333.66;5031449;28;20048;-46
2023/12/13 09:20:38;;;;;;;5.18;2.70;;;;;;;4.95;100.00;100342.34;5031179;28;20064;-47
2023/12/13 09:23:06;;;;;;;5.95;2.78;;;;;;;4.96;100.00;100356.88;5030206;28;20052;-47
2023/12/13 09:25:33;;;;;;;8.60;4.68;;;;;;;4.96;100.00;100360.44;5031056;28;20522;-48
2023/12/13 09:28:02;;;;;;;9.52;4.63;;;;;;;4.95;100.00;100367.03;5031492;28;20056;-47
2023/12/13 09:30:29;;;;;;;10.65;4.07;;;;;;;4.98;100.00;100373.84;5030770;28;20144;-46
2023/12/13 09:32:57;;;;;;;10.82;3.80;;;;;;;4.97;100.00;100370.31;5030138;28;20050;-46
2023/12/13 09:35:24;;;;;;;6.63;3.88;;;;;;;4.98;100.00;100385.63;5030835;28;20054;-46
2023/12/13 09:37:51;;;;;;;6.88;3.83;;;;;;;5.00;100.00;100396.28;5031138;28;20061;-45
2023/12/13 09:40:19;;;;;;;7.15;4.70;;;;;;;5.01;100.00;100395.97;5029949;28;20140;-45
2023/12/13 09:42:48;;;;;;;7.80;4.07;;;;;;;5.02;100.00;100400.34;5013141;28;20056;-47
2023/12/13 09:45:20;;;;;;;6.85;3.80;;;;;;;5.05;100.00;100401.63;5030703;28;20045;-46
2023/12/13 09:47:50;;;;;;;7.93;4.50;;;;;;;5.06;100.00;100409.53;5023936;28;20060;-47
2023/12/13 09:50:22;;;;;;;8.27;3.50;;;;;;;5.10;100.00;100431.66;5030247;28;20056;-48
2023/12/13 09:52:51;;;;;;;6.43;2.95;;;;;;;5.13;100.00;100428.31;5012171;28;20041;-45
2023/12/13 09:55:20;;;;;;;7.78;3.47;;;;;;;5.13;100.00;100431.84;5031025;28;20042;-46
2023/12/13 09:57:48;;;;;;;7.32;3.53;;;;;;;5.15;100.00;100435.09;5029769;28;20053;-48
2023/12/13 10:00:15;;;;;;;4.97;2.90;;;;;;;5.17;100.00;100432.00;5030745;28;20041;-46
2023/12/13 10:02:46;;;;;;;3.88;2.53;;;;;;;5.18;100.00;100434.47;5029631;28;20061;-48
2023/12/13 10:05:17;;;;;;;5.28;2.65;;;;;;;5.18;100.00;100437.19;5030315;28;20046;-47
2023/12/13 10:07:44;;;;;;;3.85;2.08;;;;;;;5.21;100.00;100450.28;5030311;28;20042;-48
2023/12/13 10:10:12;;;;;;;4.22;2.13;;;;;;;5.22;100.00;100435.44;5030065;28;20052;-45
2023/12/13 10:12:40;;;;;;;2.58;2.00;;;;;;;5.25;100.00;100445.78;5012332;28;20385;-46
2023/12/13 10:15:10;;;;;;;3.22;1.90;;;;;;;5.28;100.00;100441.59;5029773;28;20072;-45
2023/12/13 10:17:39;;;;;;;5.40;1.83;;;;;;;5.31;100.00;100447.25;5030737;28;20041;-45
2023/12/13 10:20:09;;;;;;;2.80;1.25;;;;;;;5.34;100.00;100451.31;5030825;28;20530;-46
2023/12/13 10:22:38;;;;;;;1.73;1.05;;;;;;;5.36;100.00;100452.59;5023875;28;20601;-46
2023/12/13 10:25:06;;;;;;;7.30;1.67;;;;;;;5.38;100.00;100464.06;5030567;28;20049;-48
2023/12/13 10:27:34;;;;;;;1.55;1.10;;;;;;;5.40;100.00;100461.81;5029941;28;20045;-48
2023/12/13 10:30:04;;;;;;;2.55;1.15;;;;;;;5.44;100.00;100465.56;5029724;28;20049;-47
2023/12/13 10:32:31;;;;;;;8.35;2.13;;;;;;;5.45;100.00;100461.66;5028793;28;20053;-47
2023/12/13 10:35:03;;;;;;;6.60;1.35;;;;;;;5.48;100.00;100471.22;5029836;28;20055;-45
2023/12/13 10:37:34;;;;;;;1.85;1.63;;;;;;;5.50;100.00;100469.78;5029227;28;20049;-47
2023/12/13 10:40:03;;;;;;;5.18;1.30;;;;;;;5.53;100.00;100474.63;5029290;28;20057;-46
2023/12/13 10:42:31;;;;;;;2.80;1.55;;;;;;;5.56;100.00;100467.66;5029495;28;20049;-46
2023/12/13 10:45:00;;;;;;;5.20;1.40;;;;;;;5.58;100.00;100475.59;5030441;28;20060;-48
2023/12/13 10:47:29;;;;;;;3.08;0.73;;;;;;;5.61;100.00;100472.22;5029255;28;20050;-50
2023/12/13 10:49:57;;;;;;;5.20;1.65;;;;;;;5.62;100.00;100477.38;5028908;28;20041;-45
2023/12/13 10:52:26;;;;;;;2.67;1.33;;;;;;;5.64;100.00;100475.13;5029581;28;20048;-46
2023/12/13 10:54:54;;;;;;;8.10;1.92;;;;;;;5.65;100.00;100484.19;5029353;28;20052;-49
2023/12/13 10:57:22;;;;;;;4.13;1.08;;;;;;;5.68;100.00;100494.53;5028968;28;20052;-45
2023/12/13 10:59:51;;;;;;;3.53;1.05;;;;;;;5.68;100.00;100500.03;5029209;28;20088;-47
2023/12/13 11:02:21;;;;;;;9.35;1.80;;;;;;;5.71;100.00;100502.13;5028477;28;20053;-48
2023/12/13 11:04:49;;;;;;;2.08;1.02;;;;;;;5.74;100.00;100510.56;5028542;28;20045;-46
2023/12/13 11:07:16;;;;;;;2.58;1.10;;;;;;;5.76;100.00;100519.28;5031738;28;20049;-47
2023/12/13 11:09:54;;;;;;;5.03;1.40;;;;;;;5.79;100.00;100526.06;5025826;28;20046;-48
2023/12/13 11:12:21;;;;;;;8.90;3.30;;;;;;;5.79;100.00;100521.41;5029216;28;20041;-46
2023/12/13 11:14:51;;;;;;;2.97;1.08;;;;;;;5.81;100.00;100537.56;5029367;28;20049;-47
2023/12/13 11:17:21;;;;;;;2.90;0.90;;;;;;;5.82;100.00;100531.75;5028193;28;20052;-46
2023/12/13 11:19:50;;;;;;;4.10;1.10;;;;;;;5.86;100.00;100542.94;5027816;28;20515;-45
2023/12/13 11:22:23;;;;;;;5.68;1.10;;;;;;;5.86;100.00;100546.50;5025148;28;20054;-46
2023/12/13 11:25:03;;;;;;;2.30;1.08;;;;;;;5.88;100.00;100551.66;5028611;28;20068;-45
2023/12/13 11:27:33;;;;;;;4.38;1.73;;;;;;;5.91;100.00;100551.84;5027960;28;20046;-47
2023/12/13 11:30:12;;;;;;;1.83;1.00;;;;;;;5.91;100.00;100545.53;5022471;28;20046;-46
2023/12/13 11:32:45;;;;;;;2.65;0.90;;;;;;;5.94;100.00;100544.91;5028843;28;20044;-45